M I D A S
Marine Information and Data Acquisition System
Tripno 1743 of the Zeeleeuw from 2009-07-31 09:58:22 to 2009-07-31 15:18:02
Back to CruiseResearch ActivitiesStationsMapUnderway DataData graphs

EquipmentUnitsComment
TimeDGPSUTC
LatitudeDGPSDM.mWGS84
LongitudeDGPSDM.mWGS84
HeadingGyrodeg 
SOGDGPSknotsSpeed over ground
COGDGPSdegCourse over ground
DepthEcho soundermeters200 kHz
Missing or incorrect values are displayed as -999
Navigation data collected by the RV Zeeleeuw from 2009-07-31 07:15:07 to 2009-07-31 15:25:39
Time Latitude Longitude Heading SOG COG Depth
2009-07-31 07:16:12 51°13.665 2°55.961 126.9 -999 359 -999
2009-07-31 07:17:12 51°13.665 2°55.961 126.8 -999 357 -999
2009-07-31 07:18:12 51°13.665 2°55.96 126.8 0.1 184 -999
2009-07-31 07:19:12 51°13.664 2°55.96 126.9 -999 219 -999
2009-07-31 07:20:12 51°13.664 2°55.959 126.7 -999 18 -999
2009-07-31 07:21:13 51°13.664 2°55.959 126.9 -999 2 -999
2009-07-31 07:22:12 51°13.664 2°55.96 126.9 -999 179 -999
2009-07-31 07:23:12 51°13.664 2°55.96 126.8 -999 340 -999
2009-07-31 07:24:12 51°13.664 2°55.96 126.4 -999 304 -999
2009-07-31 07:25:12 51°13.661 2°55.958 126.4 -999 52 -999
2009-07-31 07:26:12 51°13.66 2°55.958 126.7 -999 9 -999
2009-07-31 07:27:12 51°13.663 2°55.96 127 -999 45 -999
2009-07-31 07:28:12 51°13.662 2°55.959 126.7 -999 250 -999
2009-07-31 07:29:13 51°13.663 2°55.959 126.7 -999 79 -999
2009-07-31 07:30:12 51°13.662 2°55.959 126.9 -999 11 -999
2009-07-31 07:31:12 51°13.66 2°55.959 126.7 -999 20 -999
2009-07-31 07:32:13 51°13.66 2°55.959 126.5 -999 353 -999
2009-07-31 07:33:12 51°13.662 2°55.96 126.7 -999 9 -999
2009-07-31 07:34:12 51°13.666 2°55.962 126.7 -999 255 -999
2009-07-31 07:35:12 51°13.661 2°55.96 126.7 -999 23 -999
2009-07-31 07:36:12 51°13.662 2°55.961 127.1 -999 184 -999
2009-07-31 07:37:12 51°13.664 2°55.961 126.6 -999 345 -999
2009-07-31 07:38:12 51°13.662 2°55.96 126.7 -999 18 -999
2009-07-31 07:39:12 51°13.662 2°55.96 128.2 -999 84 -999
2009-07-31 07:40:12 51°13.662 2°55.96 126 -999 200 -999
2009-07-31 07:41:12 51°13.662 2°55.96 127.7 0.1 250 -999
2009-07-31 07:42:12 51°13.662 2°55.96 127.1 -999 218 -999
2009-07-31 07:43:12 51°13.662 2°55.96 126.6 -999 268 -999
2009-07-31 07:44:12 51°13.662 2°55.959 126.4 -999 101 -999
2009-07-31 07:45:12 51°13.662 2°55.959 126.2 -999 279 -999
2009-07-31 07:46:12 51°13.662 2°55.959 126.4 -999 224 -999
2009-07-31 07:47:13 51°13.663 2°55.959 126.7 -999 223 -999
2009-07-31 07:48:13 51°13.663 2°55.959 126.7 -999 82 -999
2009-07-31 07:49:11 51°13.663 2°55.959 126.8 -999 20 -999
2009-07-31 07:50:12 51°13.663 2°55.959 126.9 -999 11 -999
2009-07-31 07:51:12 51°13.663 2°55.959 127 -999 114 -999
2009-07-31 07:52:12 51°13.663 2°55.959 126.4 -999 351 -999
2009-07-31 07:53:12 51°13.662 2°55.959 126.4 -999 154 -999
2009-07-31 07:54:12 51°13.662 2°55.959 126.8 -999 242 -999
2009-07-31 07:55:11 51°13.663 2°55.959 126.5 -999 29 -999
2009-07-31 07:56:12 51°13.662 2°55.958 126.8 -999 196 -999
2009-07-31 07:57:12 51°13.663 2°55.959 126.8 -999 332 -999
2009-07-31 07:58:12 51°13.663 2°55.959 126.5 -999 37 -999
2009-07-31 07:59:12 51°13.663 2°55.959 127.4 -999 216 -999
2009-07-31 08:00:11 51°13.663 2°55.959 126.1 -999 149 -999
2009-07-31 08:01:12 51°13.662 2°55.958 126.4 -999 287 -999
2009-07-31 08:02:12 51°13.663 2°55.959 126.7 -999 265 -999
2009-07-31 08:03:12 51°13.662 2°55.959 126.8 -999 24 -999
2009-07-31 08:04:12 51°13.663 2°55.959 126.8 -999 31 -999
2009-07-31 08:05:12 51°13.663 2°55.958 126.8 -999 210 -999
2009-07-31 08:06:12 51°13.663 2°55.958 127.1 -999 340 -999
2009-07-31 08:07:12 51°13.662 2°55.958 126.2 -999 359 -999
2009-07-31 08:08:12 51°13.662 2°55.958 126.4 -999 287 -999
2009-07-31 08:09:12 51°13.662 2°55.959 126.7 -999 103 -999
2009-07-31 08:10:12 51°13.662 2°55.959 126.7 -999 9 -999
2009-07-31 08:11:12 51°13.663 2°55.96 126.7 -999 39 -999
2009-07-31 08:12:12 51°13.663 2°55.96 126.7 -999 15 -999
2009-07-31 08:13:12 51°13.664 2°55.96 126.8 -999 146 -999
2009-07-31 08:14:13 51°13.664 2°55.96 126.9 -999 240 -999
2009-07-31 08:15:13 51°13.664 2°55.959 126.8 -999 157 -999
2009-07-31 08:16:12 51°13.664 2°55.959 126.7 -999 2 -999
2009-07-31 08:17:12 51°13.663 2°55.959 126.8 -999 49 -999
2009-07-31 08:18:12 51°13.663 2°55.96 126.7 -999 263 -999
2009-07-31 08:19:12 51°13.664 2°55.96 126.6 -999 44 -999
2009-07-31 08:20:12 51°13.665 2°55.959 126.6 -999 151 -999
2009-07-31 08:21:12 51°13.665 2°55.959 126.5 -999 36 -999
2009-07-31 08:22:12 51°13.665 2°55.959 126.6 -999 200 -999
2009-07-31 08:23:12 51°13.665 2°55.959 126.7 -999 45 -999
2009-07-31 08:24:12 51°13.664 2°55.96 126.7 -999 213 -999
2009-07-31 08:25:12 51°13.663 2°55.96 126.8 -999 158 -999
2009-07-31 08:26:12 51°13.661 2°55.96 126.7 -999 160 -999
2009-07-31 08:27:12 51°13.66 2°55.96 126.7 -999 168 -999
2009-07-31 08:28:12 51°13.661 2°55.959 126.7 -999 162 -999
2009-07-31 08:29:12 51°13.661 2°55.959 127.1 -999 233 -999
2009-07-31 08:30:12 51°13.661 2°55.959 126.8 -999 156 -999
2009-07-31 08:31:12 51°13.66 2°55.959 126.7 -999 226 -999
2009-07-31 08:32:12 51°13.66 2°55.959 126.7 -999 268 -999
2009-07-31 08:33:12 51°13.66 2°55.959 126.7 -999 179 -999
2009-07-31 08:34:12 51°13.661 2°55.959 126.6 -999 41 -999
2009-07-31 08:35:13 51°13.661 2°55.959 126.7 -999 274 -999
2009-07-31 08:36:13 51°13.662 2°55.959 126.7 -999 161 -999
2009-07-31 08:37:13 51°13.662 2°55.959 126.7 -999 193 -999
2009-07-31 08:38:13 51°13.662 2°55.959 126.7 -999 151 -999
2009-07-31 08:39:13 51°13.662 2°55.959 126.7 -999 45 -999
2009-07-31 08:40:13 51°13.663 2°55.959 126.8 -999 120 -999
2009-07-31 08:41:13 51°13.663 2°55.959 126.7 -999 286 -999
2009-07-31 08:42:12 51°13.663 2°55.959 126.8 -999 105 -999
2009-07-31 08:43:12 51°13.663 2°55.959 127.7 -999 232 -999
2009-07-31 08:44:12 51°13.663 2°55.959 128 -999 306 -999
2009-07-31 08:45:12 51°13.663 2°55.958 127.1 -999 329 -999
2009-07-31 08:46:12 51°13.662 2°55.959 126.6 -999 244 -999
2009-07-31 08:47:13 51°13.663 2°55.959 126.9 -999 65 -999
2009-07-31 08:48:13 51°13.662 2°55.959 127.1 -999 235 -999
2009-07-31 08:49:13 51°13.662 2°55.96 127.4 -999 355 -999
2009-07-31 08:50:12 51°13.662 2°55.96 128.1 -999 118 -999
2009-07-31 08:51:12 51°13.662 2°55.96 128.4 -999 306 -999
2009-07-31 08:52:13 51°13.662 2°55.96 128.3 -999 219 -999
2009-07-31 08:53:12 51°13.663 2°55.959 127.3 -999 277 -999
2009-07-31 08:54:12 51°13.662 2°55.96 126.4 -999 37 -999
2009-07-31 08:55:13 51°13.662 2°55.96 126.8 -999 283 -999
2009-07-31 08:56:13 51°13.661 2°55.96 127.2 -999 58 -999
2009-07-31 08:57:13 51°13.661 2°55.961 127 -999 194 -999
2009-07-31 08:58:13 51°13.661 2°55.96 126.9 -999 212 -999
2009-07-31 08:59:13 51°13.661 2°55.96 127.2 -999 337 -999
2009-07-31 09:00:13 51°13.661 2°55.96 127.3 -999 63 -999
2009-07-31 09:01:13 51°13.662 2°55.96 128 0.1 29 -999
2009-07-31 09:02:12 51°13.662 2°55.96 127.7 -999 227 -999
2009-07-31 09:03:13 51°13.662 2°55.959 128.1 -999 4 -999
2009-07-31 09:04:13 51°13.662 2°55.959 127.1 -999 224 -999
2009-07-31 09:05:12 51°13.662 2°55.959 126.9 -999 112 -999
2009-07-31 09:06:12 51°13.662 2°55.959 127.9 0.1 213 7.1
2009-07-31 09:07:10 51°13.662 2°55.959 127.6 -999 44 7.1
2009-07-31 09:08:08 51°13.663 2°55.959 126.8 -999 9 6.9
2009-07-31 09:09:08 51°13.662 2°55.959 126.7 -999 185 7.1
2009-07-31 09:10:09 51°13.662 2°55.959 126.8 0.1 30 6.9
2009-07-31 09:11:09 51°13.662 2°55.96 127.1 -999 141 7.1
2009-07-31 09:12:08 51°13.662 2°55.961 127.1 -999 320 7
2009-07-31 09:13:08 51°13.663 2°55.961 127.1 -999 201 6.9
2009-07-31 09:14:08 51°13.663 2°55.96 128.4 0.1 152 7
2009-07-31 09:15:08 51°13.663 2°55.96 130.4 -999 122 7.1
2009-07-31 09:16:08 51°13.662 2°55.96 130.4 -999 181 7
2009-07-31 09:17:08 51°13.663 2°55.96 130.4 -999 17 5.3
2009-07-31 09:18:08 51°13.663 2°55.961 130.4 -999 353 7
2009-07-31 09:19:09 51°13.662 2°55.961 130.6 -999 245 7.2
2009-07-31 09:20:09 51°13.662 2°55.961 130.6 -999 165 5.3
2009-07-31 09:21:09 51°13.662 2°55.96 130.7 -999 295 7
2009-07-31 09:22:09 51°13.662 2°55.96 131.2 -999 210 7.1
2009-07-31 09:23:09 51°13.662 2°55.959 131.4 -999 216 7
2009-07-31 09:24:09 51°13.662 2°55.959 131.7 -999 106 7
2009-07-31 09:25:09 51°13.661 2°55.96 122.7 0.1 171 7
2009-07-31 09:26:09 51°13.661 2°55.959 114.2 0.1 190 7
2009-07-31 09:27:09 51°13.666 2°55.938 114.2 2.1 294 -999
2009-07-31 09:28:13 51°13.692 2°55.856 118.2 3.5 296 -999
2009-07-31 09:29:12 51°13.723 2°55.778 131.9 3.8 309 -999
2009-07-31 09:30:13 51°13.766 2°55.705 138.6 3.6 317 -999
2009-07-31 09:31:12 51°13.812 2°55.65 152.6 3.5 329 -999
2009-07-31 09:32:13 51°13.866 2°55.62 179.5 3.2 353 -999
2009-07-31 09:33:12 51°13.91 2°55.625 205 2.2 14 12.4
2009-07-31 09:34:11 51°13.933 2°55.636 224.5 0.6 4 12.5
2009-07-31 09:35:08 51°13.937 2°55.616 274.7 1.4 284 12.2
2009-07-31 09:36:08 51°13.962 2°55.57 326.6 3.5 325 12.4
2009-07-31 09:37:08 51°14.031 2°55.504 333.8 5.7 332 12.4
2009-07-31 09:38:08 51°14.122 2°55.422 330.9 6.8 328 12.4
2009-07-31 09:39:09 51°14.218 2°55.305 323.9 7.5 320 12.5
2009-07-31 09:40:08 51°14.307 2°55.154 312.7 8.3 310 12.2
2009-07-31 09:41:08 51°14.403 2°54.987 320.7 8.7 320 11.6
2009-07-31 09:42:08 51°14.541 2°54.879 335.6 9.9 335 11.1
2009-07-31 09:43:09 51°14.698 2°54.73 328.2 11.3 328 10.8
2009-07-31 09:44:08 51°14.86 2°54.583 332.5 11.4 333 11
2009-07-31 09:45:08 51°15.031 2°54.443 333 11.5 332 11.8
2009-07-31 09:46:08 51°15.201 2°54.303 333 11.5 332 10.9
2009-07-31 09:47:08 51°15.372 2°54.165 333.7 11.5 332 10.8
2009-07-31 09:48:08 51°15.542 2°54.027 333.7 11.5 332 11.5
2009-07-31 09:49:08 51°15.709 2°53.878 329.4 11.5 329 11.9
2009-07-31 09:50:08 51°15.873 2°53.719 328.9 11.5 329 12.7
2009-07-31 09:51:08 51°16.037 2°53.563 330 11.5 330 12.4
2009-07-31 09:52:08 51°16.203 2°53.41 328.8 11.5 329 13
2009-07-31 09:53:09 51°16.372 2°53.252 328.8 11.6 329 12.8
2009-07-31 09:54:08 51°16.533 2°53.094 328 11.6 328 12.9
2009-07-31 09:55:08 51°16.704 2°52.952 334.5 11.6 335 12.3
2009-07-31 09:56:08 51°16.878 2°52.82 335.4 11.6 336 10.4
2009-07-31 09:57:08 51°17.057 2°52.699 339.8 11.6 342 11
2009-07-31 09:58:08 51°17.245 2°52.62 350.7 11.7 352 10.6
2009-07-31 09:59:09 51°17.443 2°52.588 356.1 11.8 355 11.2
2009-07-31 10:00:09 51°17.639 2°52.558 356.1 11.8 355 11.3
2009-07-31 10:01:09 51°17.835 2°52.534 359.3 11.8 358 11.3
2009-07-31 10:02:09 51°18.032 2°52.537 4.6 11.8 1 11.3
2009-07-31 10:03:09 51°18.228 2°52.561 5.3 11.8 4 12
2009-07-31 10:04:09 51°18.425 2°52.593 9.1 11.9 9 11.9
2009-07-31 10:05:09 51°18.622 2°52.642 11.3 12 9 12.4
2009-07-31 10:06:09 51°18.818 2°52.692 9.7 11.9 8 12.9
2009-07-31 10:07:09 51°19.014 2°52.732 8.9 11.9 7 13.6
2009-07-31 10:08:09 51°19.21 2°52.779 9.6 11.9 8 14.2
2009-07-31 10:09:08 51°19.404 2°52.826 10 12 9 14.9
2009-07-31 10:10:09 51°19.604 2°52.872 7.9 12 8 15.6
2009-07-31 10:11:09 51°19.802 2°52.92 9.8 12.1 10 16.3
2009-07-31 10:12:09 51°20 2°52.967 8.4 12 7 16.8
2009-07-31 10:13:09 51°20.198 2°53.013 8.8 12.1 9 16.9
2009-07-31 10:14:08 51°20.393 2°53.057 8.2 11.9 8 17.1
2009-07-31 10:15:08 51°20.589 2°53.107 10.2 11.8 10 17.2
2009-07-31 10:16:08 51°20.784 2°53.151 8.6 11.8 7 17.1
2009-07-31 10:17:09 51°20.982 2°53.192 9.1 11.8 8 16.9
2009-07-31 10:18:09 51°21.177 2°53.235 8.3 11.9 7 16.4
2009-07-31 10:19:08 51°21.37 2°53.277 9.6 11.8 7 15.8
2009-07-31 10:20:08 51°21.565 2°53.318 9.7 11.9 8 17.1
2009-07-31 10:21:08 51°21.76 2°53.367 9.9 11.9 9 18.3
2009-07-31 10:22:08 51°21.956 2°53.411 9.4 12 9 20.6
2009-07-31 10:23:09 51°22.157 2°53.462 10.1 12 9 21.6
2009-07-31 10:24:08 51°22.352 2°53.513 9.5 12 9 22.8
2009-07-31 10:25:08 51°22.549 2°53.565 9.8 12.1 11 23.4
2009-07-31 10:26:09 51°22.75 2°53.616 9.1 12.1 9 23
2009-07-31 10:27:08 51°22.946 2°53.66 8.1 12 7 21.2
2009-07-31 10:28:08 51°23.145 2°53.7 6.9 12.1 7 21.5
2009-07-31 10:29:09 51°23.348 2°53.733 5.9 12 5 20.5
2009-07-31 10:30:08 51°23.545 2°53.769 7.3 12.1 7 21.2
2009-07-31 10:31:08 51°23.745 2°53.807 7.4 12.1 7 21.4
2009-07-31 10:32:08 51°23.945 2°53.848 7.1 12.2 5 21.9
2009-07-31 10:33:08 51°24.146 2°53.889 8.2 12.3 8 22.1
2009-07-31 10:34:08 51°24.346 2°53.929 7.7 12.2 5 20
2009-07-31 10:35:09 51°24.551 2°53.966 7.5 12.2 7 16.8
2009-07-31 10:36:08 51°24.75 2°53.998 6.9 12.1 7 17.1
2009-07-31 10:37:09 51°24.953 2°54.028 7.6 12.1 6 19.6
2009-07-31 10:38:08 51°25.15 2°54.059 8.1 12.1 5 22.3
2009-07-31 10:39:08 51°25.348 2°54.087 7.2 12 5 20.9
2009-07-31 10:40:08 51°25.546 2°54.113 6.6 12 4 21
2009-07-31 10:41:08 51°25.745 2°54.134 7 12 6 20.8
2009-07-31 10:42:08 51°25.942 2°54.158 5.8 11.8 4 23.2
2009-07-31 10:43:08 51°26.138 2°54.186 8.2 11.9 6 23.8
2009-07-31 10:44:09 51°26.337 2°54.221 8.1 11.8 6 26
2009-07-31 10:45:09 51°26.536 2°54.249 6.4 12 5 29.9
2009-07-31 10:46:09 51°26.736 2°54.285 7.7 12.1 5 27.5
2009-07-31 10:47:09 51°26.938 2°54.321 6.2 12.2 6 24.5
2009-07-31 10:48:09 51°27.141 2°54.354 6.5 12.2 6 26.2
2009-07-31 10:49:09 51°27.342 2°54.389 6.9 12.1 6 28.6
2009-07-31 10:50:08 51°27.539 2°54.43 7.9 12.2 10 26
2009-07-31 10:51:08 51°27.738 2°54.472 7.4 12.1 7 25.1
2009-07-31 10:52:08 51°27.937 2°54.515 8.8 12.1 8 23.1
2009-07-31 10:53:08 51°28.137 2°54.556 8.1 12.1 10 21.8
2009-07-31 10:54:08 51°28.337 2°54.59 6.5 12.1 6 20.2
2009-07-31 10:55:08 51°28.536 2°54.625 7.3 12 5 22.5
2009-07-31 10:56:08 51°28.735 2°54.662 7.8 12 5 24
2009-07-31 10:57:08 51°28.934 2°54.697 6.6 12 7 26
2009-07-31 10:58:08 51°29.131 2°54.731 6.7 12 6 27
2009-07-31 10:59:08 51°29.33 2°54.765 7.1 12 6 28.7
2009-07-31 11:00:09 51°29.533 2°54.801 8.4 12.2 9 28.6
2009-07-31 11:01:08 51°29.731 2°54.851 11 12.2 10 28.3
2009-07-31 11:02:08 51°29.931 2°54.905 12.4 12.1 11 30.6
2009-07-31 11:03:08 51°30.13 2°54.954 11.9 12.1 9 33.5
2009-07-31 11:04:08 51°30.327 2°55.024 14.6 12 12 35.2
2009-07-31 11:05:08 51°30.523 2°55.097 15.1 12.1 13 35.8
2009-07-31 11:06:09 51°30.722 2°55.174 13.7 12 14 35.5
2009-07-31 11:07:08 51°30.915 2°55.246 14.9 12.2 12 23.2
2009-07-31 11:08:08 51°31.111 2°55.309 6.6 12 2 18.5
2009-07-31 11:09:09 51°31.312 2°55.279 351.1 11.8 353 17.4
2009-07-31 11:10:09 51°31.51 2°55.229 351.6 12.1 351 20
2009-07-31 11:11:09 51°31.705 2°55.177 352.1 11.8 351 16.9
2009-07-31 11:12:09 51°31.894 2°55.09 343.4 11.8 342 20.7
2009-07-31 11:13:08 51°32.081 2°54.999 345.8 11.9 345 21.3
2009-07-31 11:14:08 51°32.274 2°54.923 349 11.9 347 22.5
2009-07-31 11:15:08 51°32.469 2°54.855 349.3 11.9 348 23
2009-07-31 11:16:08 51°32.664 2°54.793 349.8 11.9 349 22.1
2009-07-31 11:17:08 51°32.859 2°54.722 348 12 346 22.5
2009-07-31 11:18:08 51°33.054 2°54.713 13.1 11.6 13 24.2
2009-07-31 11:19:08 51°33.232 2°54.828 36.8 11.6 34 26.2
2009-07-31 11:20:08 51°33.377 2°55.03 47.7 11.6 46 26.7
2009-07-31 11:21:08 51°33.467 2°55.296 76.9 11.2 75 27.2
2009-07-31 11:22:08 51°33.486 2°55.511 95.4 5.2 89 25.8
2009-07-31 11:23:08 51°33.481 2°55.61 106.4 2.8 100 26.8
2009-07-31 11:24:09 51°33.478 2°55.673 107 2 93 26
2009-07-31 11:25:08 51°33.478 2°55.716 109.4 1.4 89 26.5
2009-07-31 11:26:08 51°33.479 2°55.747 116.7 0.9 89 26.1
2009-07-31 11:27:09 51°33.48 2°55.766 125.9 0.6 75 25.8
2009-07-31 11:28:08 51°33.482 2°55.777 132.4 0.4 73 25.6
2009-07-31 11:29:09 51°33.485 2°55.785 138.9 0.3 41 26.4
2009-07-31 11:30:09 51°33.49 2°55.788 143.4 0.3 348 26.5
2009-07-31 11:31:09 51°33.498 2°55.79 143.7 0.5 6 27.3
2009-07-31 11:32:08 51°33.507 2°55.79 140.3 0.6 349 27.2
2009-07-31 11:33:09 51°33.518 2°55.79 131.1 0.6 355 27.2
2009-07-31 11:34:09 51°33.528 2°55.788 120.2 0.6 -999 27
2009-07-31 11:35:09 51°33.538 2°55.787 108.3 0.7 352 26.8
2009-07-31 11:36:08 51°33.548 2°55.783 101.7 0.5 336 27
2009-07-31 11:37:08 51°33.557 2°55.779 97.3 0.7 347 26.8
2009-07-31 11:38:09 51°33.565 2°55.774 94 0.4 332 27.5
2009-07-31 11:39:09 51°33.574 2°55.768 91.9 0.6 332 27.7
2009-07-31 11:40:09 51°33.582 2°55.76 89 0.6 332 27.3
2009-07-31 11:41:09 51°33.591 2°55.752 87.2 0.7 327 27.8
2009-07-31 11:42:08 51°33.601 2°55.759 85.2 1.2 54 27.7
2009-07-31 11:43:08 51°33.607 2°55.807 98.2 2.6 89 28.3
2009-07-31 11:44:08 51°33.591 2°55.886 123.1 3.7 119 27.7
2009-07-31 11:45:08 51°33.552 2°55.979 128.4 4.4 125 27.8
2009-07-31 11:46:08 51°33.501 2°56.067 144.6 4.5 139 27.5
2009-07-31 11:47:08 51°33.44 2°56.138 147.8 4.4 147 27
2009-07-31 11:48:09 51°33.394 2°56.193 148.3 2.8 142 25.7
2009-07-31 11:49:09 51°33.363 2°56.231 146.9 2 145 26.6
2009-07-31 11:50:09 51°33.341 2°56.263 145.6 1.6 137 26.2
2009-07-31 11:51:09 51°33.324 2°56.291 144.5 1.4 134 26.3
2009-07-31 11:52:09 51°33.304 2°56.323 142.9 2.7 141 25.6
2009-07-31 11:53:08 51°33.242 2°56.406 142.3 6.8 141 26.2
2009-07-31 11:54:09 51°33.14 2°56.537 142.6 8.1 142 25.5
2009-07-31 11:55:08 51°33.045 2°56.656 144.3 5.4 140 24.6
2009-07-31 11:56:08 51°32.991 2°56.714 153 2.9 150 23.1
2009-07-31 11:57:08 51°32.96 2°56.738 160.5 1.5 150 24.8
2009-07-31 11:58:08 51°32.946 2°56.753 145.5 0.8 142 24.4
2009-07-31 11:59:08 51°32.939 2°56.767 134.8 0.6 134 24.5
2009-07-31 12:00:08 51°32.937 2°56.78 128.3 0.4 86 24.5
2009-07-31 12:01:08 51°32.939 2°56.79 122.7 0.3 66 23.9
2009-07-31 12:02:08 51°32.943 2°56.796 119.1 0.2 34 24.3
2009-07-31 12:03:08 51°32.949 2°56.8 116.9 0.2 6 24.1
2009-07-31 12:04:08 51°32.955 2°56.802 114 0.3 25 23.4
2009-07-31 12:05:08 51°32.961 2°56.804 111.2 0.4 9 22.7
2009-07-31 12:06:08 51°32.967 2°56.806 108.3 0.3 4 22.5
2009-07-31 12:07:08 51°32.973 2°56.808 107.5 0.4 16 23.3
2009-07-31 12:08:08 51°32.978 2°56.812 108.2 0.3 18 23.7
2009-07-31 12:09:08 51°32.984 2°56.816 111.6 0.4 26 24
2009-07-31 12:10:08 51°32.989 2°56.821 115.5 0.3 32 23.8
2009-07-31 12:11:08 51°32.994 2°56.827 120.3 0.3 34 23.1
2009-07-31 12:12:08 51°32.998 2°56.832 126.1 0.4 51 22.2
2009-07-31 12:13:08 51°33.001 2°56.838 129.7 0.4 49 22.7
2009-07-31 12:14:08 51°33.003 2°56.842 133.4 0.2 50 23.7
2009-07-31 12:15:09 51°33.006 2°56.848 136.5 0.3 56 23.1
2009-07-31 12:16:08 51°33.009 2°56.854 140.2 0.3 56 23.6
2009-07-31 12:17:08 51°33.01 2°56.859 141.3 0.3 66 23.3
2009-07-31 12:18:08 51°33.012 2°56.864 142.4 0.3 70 23.3
2009-07-31 12:19:08 51°33.013 2°56.869 143.9 0.4 59 23.4
2009-07-31 12:20:08 51°33.014 2°56.874 144.7 0.3 56 23
2009-07-31 12:21:08 51°33.017 2°56.877 146.7 0.2 356 23.7
2009-07-31 12:22:08 51°33.022 2°56.878 147.8 0.3 326 23.5
2009-07-31 12:23:08 51°33.028 2°56.878 146.6 0.4 3 23.9
2009-07-31 12:24:08 51°33.034 2°56.877 141.4 0.4 1 24
2009-07-31 12:25:08 51°33.039 2°56.878 135.2 0.4 12 24.3
2009-07-31 12:26:08 51°33.045 2°56.88 127.8 0.3 340 24.4
2009-07-31 12:27:08 51°33.05 2°56.882 123 0.1 9 24.5
2009-07-31 12:28:08 51°33.055 2°56.884 121 0.3 25 24.1
2009-07-31 12:29:08 51°33.058 2°56.886 121.3 0.2 24 24.3
2009-07-31 12:30:08 51°33.061 2°56.889 122.4 0.1 46 24.5
2009-07-31 12:31:09 51°33.063 2°56.894 126.6 0.3 45 24.3
2009-07-31 12:32:08 51°33.065 2°56.898 131.4 0.3 62 24.3
2009-07-31 12:33:08 51°33.066 2°56.903 134.7 0.2 78 24.2
2009-07-31 12:34:08 51°33.066 2°56.907 138.7 0.1 127 24
2009-07-31 12:35:08 51°33.065 2°56.911 143.8 0.2 95 24.3
2009-07-31 12:36:08 51°33.064 2°56.916 148.5 0.2 115 24.2
2009-07-31 12:37:08 51°33.063 2°56.919 153 0.2 107 23.9
2009-07-31 12:38:08 51°33.062 2°56.924 155.1 0.2 130 24.1
2009-07-31 12:39:08 51°33.06 2°56.927 156.9 0.2 130 24.1
2009-07-31 12:40:09 51°33.057 2°56.93 159.7 0.2 165 24.1
2009-07-31 12:41:08 51°33.056 2°56.933 162.8 0.1 151 24.2
2009-07-31 12:42:08 51°33.054 2°56.936 166 0.2 148 24.1
2009-07-31 12:43:08 51°33.051 2°56.939 169.7 0.7 167 23.9
2009-07-31 12:44:08 51°33.026 2°56.921 220.6 2.2 221 23.7
2009-07-31 12:45:08 51°33.001 2°56.86 238.3 3.1 235 22.9
2009-07-31 12:46:08 51°32.969 2°56.821 192.3 2 194 22.9
2009-07-31 12:47:08 51°32.942 2°56.824 155.2 1.2 157 23.4
2009-07-31 12:48:08 51°32.926 2°56.837 147.7 1 155 23.5
2009-07-31 12:49:08 51°32.914 2°56.85 145.5 0.9 138 22.7
2009-07-31 12:50:08 51°32.904 2°56.86 147.5 0.7 152 22.8
2009-07-31 12:51:08 51°32.895 2°56.869 151.3 0.6 155 22.7
2009-07-31 12:52:08 51°32.889 2°56.873 154.9 0.3 189 22.4
2009-07-31 12:53:08 51°32.887 2°56.874 157.1 0.1 191 22.2
2009-07-31 12:54:08 51°32.886 2°56.875 155.4 0.1 134 22.1
2009-07-31 12:55:08 51°32.885 2°56.876 152.3 0.1 177 22.1
2009-07-31 12:56:08 51°32.883 2°56.877 150.3 0.2 126 21.8
2009-07-31 12:57:08 51°32.881 2°56.88 151.1 0.1 142 21.7
2009-07-31 12:58:08 51°32.877 2°56.883 154.9 0.2 145 21.5
2009-07-31 12:59:08 51°32.876 2°56.885 159.8 -999 351 21.3
2009-07-31 13:00:08 51°32.878 2°56.884 160.9 0.2 313 21.3
2009-07-31 13:01:09 51°32.882 2°56.881 156.9 0.3 324 21.8
2009-07-31 13:02:08 51°32.887 2°56.877 150.5 0.4 329 22.2
2009-07-31 13:03:08 51°32.891 2°56.872 144.2 0.3 330 22.2
2009-07-31 13:04:08 51°32.894 2°56.868 140.1 0.2 299 22.2
2009-07-31 13:05:08 51°32.895 2°56.864 136.4 0.1 311 22.2
2009-07-31 13:06:08 51°32.895 2°56.863 132.8 -999 262 22.3
2009-07-31 13:07:08 51°32.894 2°56.862 128.8 -999 178 21.9
2009-07-31 13:08:08 51°32.892 2°56.861 126.4 0.1 136 22
2009-07-31 13:09:08 51°32.89 2°56.861 126.6 0.1 186 22.1
2009-07-31 13:10:08 51°32.887 2°56.861 128.1 0.2 191 22.3
2009-07-31 13:11:08 51°32.884 2°56.861 130.5 0.1 171 21.5
2009-07-31 13:12:08 51°32.881 2°56.861 132.3 0.1 186 22.2
2009-07-31 13:13:08 51°32.878 2°56.862 133.3 0.3 193 21.7
2009-07-31 13:14:08 51°32.873 2°56.863 138.5 0.4 197 22
2009-07-31 13:15:08 51°32.869 2°56.862 145.6 0.3 201 21.5
2009-07-31 13:16:08 51°32.865 2°56.861 149.4 0.1 185 21.1
2009-07-31 13:17:08 51°32.863 2°56.857 153.7 0.2 250 21.4
2009-07-31 13:18:08 51°32.863 2°56.852 155.4 0.1 273 21.1
2009-07-31 13:19:08 51°32.863 2°56.846 154.4 0.2 297 21.3
2009-07-31 13:20:08 51°32.863 2°56.84 152.9 0.3 257 21.4
2009-07-31 13:21:08 51°32.862 2°56.834 152.7 0.2 255 20.8
2009-07-31 13:22:08 51°32.86 2°56.829 151.2 0.3 234 20.3
2009-07-31 13:23:08 51°32.857 2°56.825 149.6 0.2 228 20.9
2009-07-31 13:24:08 51°32.854 2°56.822 147.4 0.2 200 20.4
2009-07-31 13:25:08 51°32.85 2°56.819 145.2 0.2 193 21.7
2009-07-31 13:26:08 51°32.846 2°56.815 145 0.2 201 22.2
2009-07-31 13:27:08 51°32.837 2°56.821 130 1 127 22.7
2009-07-31 13:28:08 51°32.82 2°56.863 113 2.7 124 22.9
2009-07-31 13:29:08 51°32.793 2°56.934 116.8 3.5 131 23
2009-07-31 13:30:08 51°32.761 2°57.018 116.7 3.8 121 21.5
2009-07-31 13:31:08 51°32.729 2°57.109 115.7 4 125 20.8
2009-07-31 13:32:08 51°32.696 2°57.202 116.2 4 121 18.2
2009-07-31 13:33:08 51°32.662 2°57.295 116.5 4.1 119 19.3
2009-07-31 13:34:08 51°32.629 2°57.39 116.2 4.1 118 18.7
2009-07-31 13:35:08 51°32.597 2°57.485 116.5 4.1 120 18.3
2009-07-31 13:36:08 51°32.565 2°57.582 116.2 4.1 118 18
2009-07-31 13:37:08 51°32.528 2°57.692 116.8 5.2 118 17.3
2009-07-31 13:38:09 51°32.472 2°57.857 118.3 8.1 120 15.2
2009-07-31 13:39:09 51°32.382 2°58.055 125.8 9.7 128 14.8
2009-07-31 13:40:09 51°32.284 2°58.259 128.9 10.4 132 17.6
2009-07-31 13:41:09 51°32.152 2°58.463 143.1 11.3 141 33
2009-07-31 13:42:09 51°31.989 2°58.611 152.6 11.5 154 35.5
2009-07-31 13:43:09 51°31.807 2°58.698 167.3 11.5 171 30.8
2009-07-31 13:44:09 51°31.61 2°58.741 172.4 12.3 172 29.2
2009-07-31 13:45:09 51°31.41 2°58.77 173.2 12.1 175 28
2009-07-31 13:46:09 51°31.211 2°58.774 179.4 12 185 27.6
2009-07-31 13:47:09 51°31.014 2°58.711 196.8 12.1 198 27.1
2009-07-31 13:48:09 51°30.825 2°58.587 202.3 12.3 205 27
2009-07-31 13:49:09 51°30.637 2°58.463 202.7 12.4 202 26.9
2009-07-31 13:50:09 51°30.447 2°58.343 199.8 12.2 200 27.1
2009-07-31 13:51:09 51°30.256 2°58.226 200.8 12.2 200 27.3
2009-07-31 13:52:09 51°30.064 2°58.112 198.4 12.3 202 25.9
2009-07-31 13:53:09 51°29.87 2°58.003 199.4 12.5 199 24.6
2009-07-31 13:54:09 51°29.676 2°57.89 199.9 12.3 202 24.4
2009-07-31 13:55:09 51°29.481 2°57.775 198.6 12.4 202 24.1
2009-07-31 13:56:09 51°29.287 2°57.664 198.6 12.5 200 23
2009-07-31 13:57:09 51°29.092 2°57.553 199 12.6 201 25.2
2009-07-31 13:58:09 51°28.898 2°57.443 197.7 12.3 202 25.4
2009-07-31 13:59:09 51°28.703 2°57.335 197.4 12.6 197 27.5
2009-07-31 14:00:09 51°28.512 2°57.225 200.3 12.1 203 27.1
2009-07-31 14:01:09 51°28.321 2°57.117 199.2 12.1 198 26.9
2009-07-31 14:02:09 51°28.131 2°57.011 198.6 12.1 199 27
2009-07-31 14:03:09 51°27.94 2°56.896 199.2 12.3 203 27.4
2009-07-31 14:04:09 51°27.749 2°56.778 199.3 12.5 202 27
2009-07-31 14:05:09 51°27.558 2°56.658 200.5 12.1 203 24.8
2009-07-31 14:06:09 51°27.366 2°56.54 198.7 12.5 202 24.4
2009-07-31 14:07:09 51°27.171 2°56.419 199.5 12.4 201 24.8
2009-07-31 14:08:09 51°26.977 2°56.303 197.9 12.2 201 25.3
2009-07-31 14:09:09 51°26.784 2°56.181 200.8 12.5 200 24.7
2009-07-31 14:10:09 51°26.59 2°56.057 198.5 12.6 203 23.1
2009-07-31 14:11:09 51°26.399 2°55.942 199.1 12.3 203 21.8
2009-07-31 14:12:09 51°26.21 2°55.831 199.1 12.1 201 19.5
2009-07-31 14:13:09 51°26.022 2°55.713 199.4 12.1 199 18.2
2009-07-31 14:14:09 51°25.834 2°55.593 197.6 12.4 198 17.6
2009-07-31 14:15:09 51°25.646 2°55.473 198.6 12.1 198 17.2
2009-07-31 14:16:09 51°25.457 2°55.35 198.6 12.3 203 17.1
2009-07-31 14:17:09 51°25.267 2°55.223 199.6 12.6 203 17.2
2009-07-31 14:18:09 51°25.078 2°55.093 201.1 12.3 204 18.3
2009-07-31 14:19:09 51°24.888 2°54.968 199.7 12.4 201 17.5
2009-07-31 14:20:09 51°24.697 2°54.846 199.5 12.4 201 18.4
2009-07-31 14:21:09 51°24.504 2°54.722 198.9 12.4 201 20.7
2009-07-31 14:22:09 51°24.312 2°54.59 199.4 12.7 204 21.5
2009-07-31 14:23:09 51°24.121 2°54.46 199.9 12.7 207 20.6
2009-07-31 14:24:09 51°23.928 2°54.328 200.5 12.7 202 19.8
2009-07-31 14:25:09 51°23.734 2°54.198 198.6 12.5 203 19.8
2009-07-31 14:26:09 51°23.539 2°54.079 198.7 12.5 199 19.2
2009-07-31 14:27:09 51°23.345 2°53.954 200 12.4 205 19.5
2009-07-31 14:28:09 51°23.151 2°53.83 199.1 12.4 202 18.1
2009-07-31 14:29:09 51°22.954 2°53.74 183.7 12.6 187 20.2
2009-07-31 14:30:09 51°22.749 2°53.728 176.8 11.9 181 21.9
2009-07-31 14:31:09 51°22.545 2°53.72 177 12.4 182 22.4
2009-07-31 14:32:09 51°22.341 2°53.708 177.9 12.1 182 20.9
2009-07-31 14:33:09 51°22.137 2°53.694 177.7 12.4 183 18.9
2009-07-31 14:34:09 51°21.936 2°53.635 187.9 12.1 192 18.2
2009-07-31 14:35:09 51°21.736 2°53.558 191 12.3 194 16.4
2009-07-31 14:36:09 51°21.537 2°53.475 190 12.3 193 15.7
2009-07-31 14:37:09 51°21.336 2°53.399 187.9 12.3 194 15.1
2009-07-31 14:38:09 51°21.133 2°53.324 190.6 12.4 196 15.3
2009-07-31 14:39:09 51°20.932 2°53.243 189.4 12.4 195 15.7
2009-07-31 14:40:09 51°20.73 2°53.165 189.9 12.9 194 15.7
2009-07-31 14:41:09 51°20.528 2°53.087 188.9 12.5 193 15.6
2009-07-31 14:42:09 51°20.325 2°53.009 189.3 12.8 196 15.5
2009-07-31 14:43:09 51°20.122 2°52.933 188.2 12.5 192 15.6
2009-07-31 14:44:09 51°19.919 2°52.859 188.1 12.7 195 15.3
2009-07-31 14:45:09 51°19.716 2°52.788 188.7 12.5 191 14.7
2009-07-31 14:46:09 51°19.513 2°52.707 191 12.9 197 14.3
2009-07-31 14:47:09 51°19.31 2°52.63 190 12.6 194 13.5
2009-07-31 14:48:09 51°19.106 2°52.554 189.8 12.3 191 12.8
2009-07-31 14:49:09 51°18.903 2°52.476 189.6 12.6 195 12
2009-07-31 14:50:09 51°18.701 2°52.401 190.3 12.6 194 11.4
2009-07-31 14:51:09 51°18.499 2°52.326 189.2 12.5 193 10.8
2009-07-31 14:52:09 51°18.296 2°52.251 190.1 12.5 193 10.6
2009-07-31 14:53:09 51°18.094 2°52.194 180.4 12.5 182 10.6
2009-07-31 14:54:09 51°17.891 2°52.19 176.6 12.1 179 10.6
2009-07-31 14:55:09 51°17.686 2°52.187 177.3 12.6 181 10.8
2009-07-31 14:56:09 51°17.482 2°52.185 177.3 12.1 181 10.4
2009-07-31 14:57:09 51°17.279 2°52.178 177.3 12.3 182 10.5
2009-07-31 14:58:09 51°17.075 2°52.168 179.4 12.1 182 10.4
2009-07-31 14:59:09 51°16.876 2°52.196 161.9 11.8 165 10.3
2009-07-31 15:00:09 51°16.698 2°52.326 148.1 11.8 151 9.9
2009-07-31 15:01:09 51°16.528 2°52.485 144.4 12 149 10.9
2009-07-31 15:02:09 51°16.358 2°52.636 147.4 11.6 152 11.5
2009-07-31 15:03:09 51°16.189 2°52.785 144.3 11.2 150 11.6
2009-07-31 15:04:09 51°16.026 2°52.937 143.8 11.5 148 11.4
2009-07-31 15:05:09 51°15.869 2°53.103 139.4 11.1 145 11
2009-07-31 15:06:09 51°15.717 2°53.279 138.3 11.4 144 10.7
2009-07-31 15:07:09 51°15.566 2°53.455 138.9 11.2 144 10.4
2009-07-31 15:08:09 51°15.416 2°53.633 137.1 11.2 141 9.7
2009-07-31 15:09:09 51°15.268 2°53.815 138 11.4 141 9.2
2009-07-31 15:10:09 51°15.121 2°53.997 138.7 11.1 144 8.8
2009-07-31 15:11:09 51°14.968 2°54.173 140.2 11.2 144 8.4
2009-07-31 15:12:09 51°14.815 2°54.351 139.9 11.4 145 9.4
2009-07-31 15:13:09 51°14.665 2°54.533 139.8 11.3 140 9.7
2009-07-31 15:14:09 51°14.529 2°54.735 130.7 11.1 135 9.8
2009-07-31 15:15:09 51°14.406 2°54.952 125.5 11 129 9.6
2009-07-31 15:16:09 51°14.298 2°55.183 128 9.8 130 10.1
2009-07-31 15:17:09 51°14.197 2°55.34 141.2 7.9 142 10.8
2009-07-31 15:18:09 51°14.086 2°55.436 155 7.6 155 10.2
2009-07-31 15:19:09 51°13.975 2°55.518 155.2 7.2 156 10.6
2009-07-31 15:20:09 51°13.863 2°55.598 155.5 7.4 155 10.5
2009-07-31 15:21:11 51°13.765 2°55.702 138 6 136 10.6
2009-07-31 15:22:10 51°13.712 2°55.804 126.7 4.5 127 9.9
2009-07-31 15:23:09 51°13.68 2°55.89 114.6 3.4 115 8
2009-07-31 15:24:09 51°13.665 2°55.95 113.9 1.2 121 7.8
2009-07-31 15:25:09 51°13.662 2°55.959 125.7 0.1 91 7.4